createdAt,value
2023-03-23T15:58:24.471Z,66.51
2023-03-23T16:00:54.813Z,69.00
2023-03-23T16:03:27.681Z,67.72
2023-03-23T16:05:57.625Z,69.69
2023-03-23T16:08:26.304Z,68.51
2023-03-23T16:10:54.775Z,68.55
2023-03-23T16:13:23.654Z,68.59
2023-03-23T16:15:53.721Z,71.87
2023-03-23T16:18:23.656Z,69.86
2023-03-23T16:20:52.461Z,69.63
2023-03-23T16:23:21.173Z,70.40
2023-03-23T16:25:50.123Z,67.96
2023-03-23T16:28:18.916Z,68.62
2023-03-23T16:30:47.858Z,70.21
2023-03-23T16:33:17.858Z,69.36
2023-03-23T16:35:46.687Z,68.86
2023-03-23T16:38:17.493Z,70.12
2023-03-23T16:40:47.745Z,70.57
2023-03-23T16:43:16.286Z,70.12
2023-03-23T16:45:47.231Z,70.30
2023-03-23T16:48:18.257Z,71.34
2023-03-23T16:50:47.138Z,70.73
2023-03-23T16:53:16.318Z,72.92
2023-03-23T16:55:48.211Z,73.61
2023-03-23T16:58:18.102Z,73.63
2023-03-23T17:00:50.308Z,75.41
2023-03-23T17:03:21.737Z,72.88
2023-03-23T17:05:52.344Z,73.25
2023-03-23T17:08:22.527Z,77.06
2023-03-23T17:10:51.620Z,74.61
2023-03-23T17:13:20.080Z,74.73
2023-03-23T17:15:49.301Z,79.18
2023-03-23T17:18:19.550Z,83.78
2023-03-23T17:20:48.003Z,84.88
2023-03-23T17:23:17.164Z,84.92
2023-03-23T17:25:46.362Z,86.16
2023-03-23T17:28:15.157Z,87.37
2023-03-23T17:30:46.206Z,87.00
2023-03-23T17:33:15.244Z,86.38
2023-03-23T17:35:51.618Z,86.17
2023-03-23T17:38:20.902Z,85.44
2023-03-23T17:40:49.377Z,84.63
2023-03-23T17:43:17.821Z,84.86
2023-03-23T17:45:47.245Z,84.99
2023-03-23T17:48:16.148Z,85.56
2023-03-23T17:50:48.653Z,84.14
2023-03-23T17:53:18.569Z,84.98
2023-03-23T17:55:47.796Z,85.89
2023-03-23T17:58:16.803Z,83.91
2023-03-23T18:00:45.492Z,82.49
2023-03-23T18:03:14.241Z,84.90
2023-03-23T18:05:42.895Z,79.70
2023-03-23T18:08:12.851Z,84.34
2023-03-23T18:10:42.503Z,84.17
2023-03-23T18:13:11.896Z,86.30
2023-03-23T18:15:46.838Z,88.49
2023-03-23T18:18:15.958Z,88.26
2023-03-23T18:20:44.734Z,88.50
2023-03-23T18:23:15.429Z,86.46
2023-03-23T18:25:44.118Z,85.82
2023-03-23T18:28:12.853Z,85.51
2023-03-23T18:30:41.381Z,87.15
2023-03-23T18:33:09.899Z,86.14
2023-03-23T18:35:38.418Z,85.57
2023-03-23T18:38:07.049Z,86.72
2023-03-23T18:40:37.156Z,86.66
2023-03-23T18:43:05.606Z,84.84
2023-03-23T18:45:34.447Z,85.19
2023-03-23T18:48:03.992Z,84.76
2023-03-23T18:50:32.595Z,85.04
2023-03-23T18:53:01.179Z,85.61
2023-03-23T18:55:30.823Z,86.50
2023-03-23T18:58:00.644Z,86.35
2023-03-23T19:00:29.671Z,86.16
2023-03-23T19:02:58.252Z,84.80
2023-03-23T19:05:28.842Z,85.87
2023-03-23T19:07:58.088Z,87.09
2023-03-23T19:10:27.022Z,86.31
2023-03-23T19:12:55.606Z,87.32
2023-03-23T19:15:26.450Z,87.82
2023-03-23T19:17:56.486Z,87.84
2023-03-23T19:20:57.307Z,87.59
2023-03-23T19:23:14.734Z,86.58
2023-03-23T19:25:43.360Z,85.91
2023-03-23T19:29:00.558Z,87.55
2023-03-23T19:31:01.719Z,87.62
2023-03-23T19:33:30.376Z,86.50
2023-03-23T19:36:09.101Z,88.21
2023-03-23T19:38:40.357Z,87.94
2023-03-23T19:41:09.108Z,86.85
2023-03-23T19:43:38.054Z,86.79
2023-03-23T19:46:08.713Z,87.72
2023-03-23T19:48:39.102Z,85.79
2023-03-23T19:51:09.871Z,86.72
2023-03-23T19:53:39.569Z,86.16
2023-03-23T19:56:13.933Z,87.74
2023-03-23T19:58:42.493Z,87.29
2023-03-23T20:01:12.946Z,87.82
2023-03-23T20:03:42.224Z,88.23
2023-03-23T20:06:15.122Z,88.84
2023-03-23T20:08:48.780Z,86.70
2023-03-23T20:11:20.428Z,86.92
2023-03-23T20:13:50.127Z,88.56
2023-03-23T20:16:20.411Z,89.43
2023-03-23T20:18:50.088Z,86.95
2023-03-23T20:21:22.583Z,88.83
2023-03-23T20:23:54.151Z,87.68
2023-03-23T20:26:26.158Z,87.68
2023-03-23T20:28:56.688Z,86.33
2023-03-23T20:31:31.712Z,87.38
2023-03-23T20:34:09.024Z,88.55
2023-03-23T20:36:40.616Z,87.64
2023-03-23T20:39:16.035Z,87.61
2023-03-23T20:41:44.535Z,87.88
2023-03-23T20:44:15.863Z,88.48
2023-03-23T20:46:47.994Z,88.62
2023-03-23T20:49:17.560Z,87.73
2023-03-23T20:51:46.557Z,89.10
2023-03-23T20:54:15.815Z,87.65
2023-03-23T20:56:45.584Z,88.18
2023-03-23T20:59:14.873Z,89.27
2023-03-23T21:01:44.057Z,88.72
2023-03-23T21:04:18.101Z,88.23
2023-03-23T21:06:49.225Z,88.51
2023-03-23T21:09:18.453Z,89.89
2023-03-23T21:11:48.462Z,89.44
2023-03-23T21:14:17.498Z,90.12
2023-03-23T21:16:46.445Z,89.90
2023-03-23T21:19:17.381Z,88.10
2023-03-23T21:21:55.981Z,87.71
2023-03-23T21:24:28.588Z,89.33
2023-03-23T21:26:59.673Z,88.50
2023-03-23T21:29:29.264Z,89.82
2023-03-23T21:34:31.910Z,89.23
2023-03-23T21:37:00.440Z,88.80
2023-03-23T21:39:29.294Z,87.34
2023-03-23T21:41:59.570Z,87.66
2023-03-23T21:44:28.198Z,87.73
2023-03-23T21:46:56.672Z,88.16
2023-03-23T21:49:25.111Z,88.90
2023-03-23T21:51:54.926Z,87.95
2023-03-23T21:54:23.587Z,87.31
2023-03-23T21:56:52.340Z,89.01
2023-03-23T21:59:21.039Z,85.77
2023-03-23T22:01:49.823Z,87.24
2023-03-23T22:04:18.317Z,87.04
2023-03-23T22:06:47.954Z,86.04
2023-03-23T22:09:17.952Z,86.21
2023-03-23T22:11:46.413Z,86.34
2023-03-23T22:14:15.147Z,87.07
2023-03-23T22:16:43.817Z,86.88
2023-03-23T22:19:12.377Z,86.88
2023-03-23T22:21:40.896Z,86.97
2023-03-23T22:24:09.559Z,86.38
2023-03-23T22:26:39.918Z,85.86
2023-03-23T22:29:11.230Z,85.31
2023-03-23T22:31:40.998Z,85.32
2023-03-23T22:34:09.517Z,87.32
2023-03-23T22:36:38.899Z,86.13
2023-03-23T22:39:08.975Z,85.77
2023-03-23T22:41:41.541Z,85.58
2023-03-23T22:44:13.771Z,85.44
2023-03-23T22:46:43.303Z,85.46
2023-03-23T22:49:11.848Z,85.34
2023-03-23T22:51:41.233Z,85.70
2023-03-23T22:54:11.615Z,88.74
2023-03-23T22:56:41.675Z,87.33
2023-03-23T22:59:12.436Z,88.40
2023-03-23T23:01:40.987Z,87.36
2023-03-23T23:04:09.841Z,87.77
2023-03-23T23:06:38.393Z,87.89
2023-03-23T23:09:07.267Z,86.98
2023-03-23T23:11:35.894Z,87.76
2023-03-23T23:14:05.797Z,88.22
2023-03-23T23:16:34.654Z,86.71
2023-03-23T23:19:03.282Z,87.56
2023-03-23T23:21:31.850Z,88.63
2023-03-23T23:24:00.312Z,87.85
2023-03-23T23:26:29.010Z,88.01
2023-03-23T23:28:57.477Z,87.06
2023-03-23T23:31:32.363Z,79.75
2023-03-23T23:34:03.254Z,85.61
2023-03-23T23:36:32.546Z,86.18
2023-03-23T23:39:03.703Z,84.99
2023-03-23T23:41:32.149Z,85.63
2023-03-23T23:44:01.405Z,85.97
2023-03-23T23:46:32.356Z,87.02
2023-03-23T23:49:01.728Z,86.82
2023-03-23T23:51:34.346Z,86.21
2023-03-23T23:54:02.863Z,86.52
2023-03-23T23:56:31.690Z,82.78
2023-03-23T23:59:00.398Z,85.51
